Hlavní strana
METAR-TAF:

METAR-TAF

Letiště :

Tozeur, Tunisko

zeměpisná šířka: 33-55N, zeměpisná délka: 008-06E, výška: 87 m

Aktuální stav počasí

Zpráva byla vytvořena před 54 minutami, v 12:00 UTC
Východní vítr 18 kt
Teplota 20°C
Vlhkost vzduchu 43%
Tlak 1023 hPa
Viditelnost: 5000 m

METAR: DTTZ 011200Z 08018KT 5000 NSC 20/07 Q1023

Čas: 13:54 (12:54 UTC)

Předpověď počasí

Zpráva byla vytvořena před 1 hodinou a 54 minutami, v 11:00 UTC
Předpověď platná od 01 v 12 UTC do 02 v 12 UTC
Východní vítr 18 kt
Viditelnost: 7000 m
Změna
od 02 v 06 UTC do 02 v 08 UTC
Východní vítr 20 kt s nárazy do 31 kt
Viditelnost: 5000 m
Pravděpodobnost 40% :
Dočasný
od 02 v 08 UTC do 02 v 12 UTC
Viditelnost: 3000 m
písek

TAF: DTTZ 011100Z 0112/0212 08018KT 7000 NSC BECMG 0206/0208 08020G31KT 5000 NSC PROB40 TEMPO 0208/0212 3000 SA

Stav a předpovědi počasí z více než 4 000 letišť (zprávy METAR a TAF).

Červené a žluté tečky na mapě představují dostupné meteorologické stanice.

Když kurzor umístíte na tečku, zobrazí se název stanice.

Pak kliknutím zobrazíte stav a předpověď počasí.

Chcete-li změnit mapu, kliknutím na zelené tlačítko se znaménkem +mapu přiblížíte, kliknutím na zelené tlačítko se znaménkem – mapu oddálíte a kliknutím na zelené šipky přejdete na sousední mapy.


METAR-TAF: